sensor_id;sensor_type;location;lat;lon;timestamp;temperature;humidity
6738;DHT22;3406;49.902;8.596;2023-07-22T00:00:12;18.10;67.40
6738;DHT22;3406;49.902;8.596;2023-07-22T00:02:40;18.10;67.50
6738;DHT22;3406;49.902;8.596;2023-07-22T00:05:08;18.10;67.60
6738;DHT22;3406;49.902;8.596;2023-07-22T00:07:35;18.10;67.70
6738;DHT22;3406;49.902;8.596;2023-07-22T00:10:02;18.00;67.70
6738;DHT22;3406;49.902;8.596;2023-07-22T00:12:30;18.00;67.90
6738;DHT22;3406;49.902;8.596;2023-07-22T00:14:57;18.00;68.00
6738;DHT22;3406;49.902;8.596;2023-07-22T00:17:24;18.00;68.00
6738;DHT22;3406;49.902;8.596;2023-07-22T00:19:51;18.00;68.10
6738;DHT22;3406;49.902;8.596;2023-07-22T00:22:17;18.00;68.20
6738;DHT22;3406;49.902;8.596;2023-07-22T00:24:45;18.00;68.30
6738;DHT22;3406;49.902;8.596;2023-07-22T00:27:12;18.00;68.30
6738;DHT22;3406;49.902;8.596;2023-07-22T00:29:40;17.90;68.40
6738;DHT22;3406;49.902;8.596;2023-07-22T00:32:07;17.90;68.50
6738;DHT22;3406;49.902;8.596;2023-07-22T00:34:34;17.90;68.60
6738;DHT22;3406;49.902;8.596;2023-07-22T00:37:02;17.90;68.70
6738;DHT22;3406;49.902;8.596;2023-07-22T00:39:28;17.90;68.80
6738;DHT22;3406;49.902;8.596;2023-07-22T00:41:55;17.90;68.90
6738;DHT22;3406;49.902;8.596;2023-07-22T00:44:22;17.90;69.00
6738;DHT22;3406;49.902;8.596;2023-07-22T00:46:52;17.90;69.70
6738;DHT22;3406;49.902;8.596;2023-07-22T00:49:20;17.80;69.00
6738;DHT22;3406;49.902;8.596;2023-07-22T00:51:46;17.80;69.00
6738;DHT22;3406;49.902;8.596;2023-07-22T00:54:14;17.80;69.10
6738;DHT22;3406;49.902;8.596;2023-07-22T00:56:41;17.70;69.10
6738;DHT22;3406;49.902;8.596;2023-07-22T00:59:08;17.60;69.20
6738;DHT22;3406;49.902;8.596;2023-07-22T01:01:34;17.60;69.30
6738;DHT22;3406;49.902;8.596;2023-07-22T01:04:02;17.50;69.40
6738;DHT22;3406;49.902;8.596;2023-07-22T01:06:30;17.50;69.60
6738;DHT22;3406;49.902;8.596;2023-07-22T01:08:57;17.40;69.70
6738;DHT22;3406;49.902;8.596;2023-07-22T01:11:24;17.40;69.90
6738;DHT22;3406;49.902;8.596;2023-07-22T01:13:51;17.30;69.90
6738;DHT22;3406;49.902;8.596;2023-07-22T01:16:23;17.30;70.80
6738;DHT22;3406;49.902;8.596;2023-07-22T01:18:50;17.30;70.30
6738;DHT22;3406;49.902;8.596;2023-07-22T01:21:19;17.30;70.40
6738;DHT22;3406;49.902;8.596;2023-07-22T01:23:48;17.20;70.40
6738;DHT22;3406;49.902;8.596;2023-07-22T01:26:16;17.20;70.50
6738;DHT22;3406;49.902;8.596;2023-07-22T01:28:43;17.20;70.50
6738;DHT22;3406;49.902;8.596;2023-07-22T01:31:10;17.20;70.60
6738;DHT22;3406;49.902;8.596;2023-07-22T01:33:37;17.20;70.60
6738;DHT22;3406;49.902;8.596;2023-07-22T01:36:04;17.20;70.70
6738;DHT22;3406;49.902;8.596;2023-07-22T01:38:33;17.20;71.50
6738;DHT22;3406;49.902;8.596;2023-07-22T01:41:01;17.10;70.70
6738;DHT22;3406;49.902;8.596;2023-07-22T01:43:27;17.20;70.90
6738;DHT22;3406;49.902;8.596;2023-07-22T01:45:54;17.10;70.90
6738;DHT22;3406;49.902;8.596;2023-07-22T01:48:21;17.10;70.90
6738;DHT22;3406;49.902;8.596;2023-07-22T01:50:48;17.00;70.90
6738;DHT22;3406;49.902;8.596;2023-07-22T01:53:15;17.00;71.00
6738;DHT22;3406;49.902;8.596;2023-07-22T01:55:42;16.90;71.10
6738;DHT22;3406;49.902;8.596;2023-07-22T01:58:11;16.90;71.30
6738;DHT22;3406;49.902;8.596;2023-07-22T02:00:37;16.80;71.30
6738;DHT22;3406;49.902;8.596;2023-07-22T02:03:04;16.80;71.50
6738;DHT22;3406;49.902;8.596;2023-07-22T02:05:30;16.70;71.40
6738;DHT22;3406;49.902;8.596;2023-07-22T02:07:57;16.70;71.60
6738;DHT22;3406;49.902;8.596;2023-07-22T02:10:24;16.60;71.70
6738;DHT22;3406;49.902;8.596;2023-07-22T02:12:50;16.60;71.90
6738;DHT22;3406;49.902;8.596;2023-07-22T02:15:19;16.50;71.90
6738;DHT22;3406;49.902;8.596;2023-07-22T02:17:47;16.50;72.10
6738;DHT22;3406;49.902;8.596;2023-07-22T02:20:14;16.50;72.20
6738;DHT22;3406;49.902;8.596;2023-07-22T02:22:40;16.40;72.30
6738;DHT22;3406;49.902;8.596;2023-07-22T02:25:08;16.40;72.30
6738;DHT22;3406;49.902;8.596;2023-07-22T02:27:35;16.30;72.40
6738;DHT22;3406;49.902;8.596;2023-07-22T02:30:02;16.30;72.60
6738;DHT22;3406;49.902;8.596;2023-07-22T02:32:31;16.20;72.60
6738;DHT22;3406;49.902;8.596;2023-07-22T02:34:58;16.20;72.80
6738;DHT22;3406;49.902;8.596;2023-07-22T02:37:24;16.20;73.00
6738;DHT22;3406;49.902;8.596;2023-07-22T02:39:53;16.20;73.00
6738;DHT22;3406;49.902;8.596;2023-07-22T02:42:20;16.20;73.10
6738;DHT22;3406;49.902;8.596;2023-07-22T02:44:47;16.20;73.10
6738;DHT22;3406;49.902;8.596;2023-07-22T02:47:13;16.10;73.00
6738;DHT22;3406;49.902;8.596;2023-07-22T02:49:41;16.10;73.20
6738;DHT22;3406;49.902;8.596;2023-07-22T02:52:08;16.00;73.20
6738;DHT22;3406;49.902;8.596;2023-07-22T02:54:40;15.90;73.30
6738;DHT22;3406;49.902;8.596;2023-07-22T02:57:06;15.90;73.50
6738;DHT22;3406;49.902;8.596;2023-07-22T02:59:33;15.80;73.40
6738;DHT22;3406;49.902;8.596;2023-07-22T03:02:00;15.80;73.60
6738;DHT22;3406;49.902;8.596;2023-07-22T03:04:26;15.80;73.70
6738;DHT22;3406;49.902;8.596;2023-07-22T03:06:54;15.70;73.70
6738;DHT22;3406;49.902;8.596;2023-07-22T03:09:21;15.60;73.80
6738;DHT22;3406;49.902;8.596;2023-07-22T03:11:48;15.60;74.00
6738;DHT22;3406;49.902;8.596;2023-07-22T03:14:14;15.50;74.10
6738;DHT22;3406;49.902;8.596;2023-07-22T03:16:41;15.50;74.30
6738;DHT22;3406;49.902;8.596;2023-07-22T03:19:08;15.50;74.40
6738;DHT22;3406;49.902;8.596;2023-07-22T03:21:35;15.50;74.60
6738;DHT22;3406;49.902;8.596;2023-07-22T03:24:04;15.40;74.60
6738;DHT22;3406;49.902;8.596;2023-07-22T03:26:31;15.40;74.70
6738;DHT22;3406;49.902;8.596;2023-07-22T03:28:58;15.40;74.80
6738;DHT22;3406;49.902;8.596;2023-07-22T03:31:24;15.50;75.00
6738;DHT22;3406;49.902;8.596;2023-07-22T03:33:51;15.40;74.90
6738;DHT22;3406;49.902;8.596;2023-07-22T03:36:18;15.40;75.00
6738;DHT22;3406;49.902;8.596;2023-07-22T03:38:45;15.30;75.10
6738;DHT22;3406;49.902;8.596;2023-07-22T03:41:13;15.30;75.30
6738;DHT22;3406;49.902;8.596;2023-07-22T03:43:39;15.20;75.40
6738;DHT22;3406;49.902;8.596;2023-07-22T03:46:06;15.20;75.50
6738;DHT22;3406;49.902;8.596;2023-07-22T03:48:33;15.20;75.70
6738;DHT22;3406;49.902;8.596;2023-07-22T03:50:59;15.20;75.80
6738;DHT22;3406;49.902;8.596;2023-07-22T03:53:26;15.20;75.90
6738;DHT22;3406;49.902;8.596;2023-07-22T03:55:53;15.20;76.00
6738;DHT22;3406;49.902;8.596;2023-07-22T03:58:21;15.20;76.00
6738;DHT22;3406;49.902;8.596;2023-07-22T04:00:49;15.20;76.20
6738;DHT22;3406;49.902;8.596;2023-07-22T04:03:15;15.10;76.10
6738;DHT22;3406;49.902;8.596;2023-07-22T04:05:42;15.10;76.20
6738;DHT22;3406;49.902;8.596;2023-07-22T04:08:09;15.10;76.30
6738;DHT22;3406;49.902;8.596;2023-07-22T04:10:35;15.00;76.30
6738;DHT22;3406;49.902;8.596;2023-07-22T04:13:02;15.00;76.50
6738;DHT22;3406;49.902;8.596;2023-07-22T04:15:31;15.00;76.50
6738;DHT22;3406;49.902;8.596;2023-07-22T04:17:58;15.00;76.60
6738;DHT22;3406;49.902;8.596;2023-07-22T04:20:24;15.00;76.70
6738;DHT22;3406;49.902;8.596;2023-07-22T04:22:51;15.00;76.90
6738;DHT22;3406;49.902;8.596;2023-07-22T04:25:18;15.00;77.00
6738;DHT22;3406;49.902;8.596;2023-07-22T04:27:45;15.00;77.10
6738;DHT22;3406;49.902;8.596;2023-07-22T04:30:12;15.10;77.20
6738;DHT22;3406;49.902;8.596;2023-07-22T04:32:46;15.10;77.30
6738;DHT22;3406;49.902;8.596;2023-07-22T04:35:13;15.10;77.40
6738;DHT22;3406;49.902;8.596;2023-07-22T04:37:42;15.10;77.50
6738;DHT22;3406;49.902;8.596;2023-07-22T04:40:10;15.20;77.70
6738;DHT22;3406;49.902;8.596;2023-07-22T04:42:39;15.20;77.80
6738;DHT22;3406;49.902;8.596;2023-07-22T04:45:07;15.30;78.00
6738;DHT22;3406;49.902;8.596;2023-07-22T04:47:35;15.30;78.00
6738;DHT22;3406;49.902;8.596;2023-07-22T04:50:03;15.40;78.20
6738;DHT22;3406;49.902;8.596;2023-07-22T04:52:31;15.40;78.30
6738;DHT22;3406;49.902;8.596;2023-07-22T04:54:58;15.40;78.30
6738;DHT22;3406;49.902;8.596;2023-07-22T04:57:25;15.50;78.40
6738;DHT22;3406;49.902;8.596;2023-07-22T04:59:51;15.60;78.60
6738;DHT22;3406;49.902;8.596;2023-07-22T05:02:18;15.70;78.60
6738;DHT22;3406;49.902;8.596;2023-07-22T05:04:45;15.70;78.60
6738;DHT22;3406;49.902;8.596;2023-07-22T05:07:12;15.90;78.80
6738;DHT22;3406;49.902;8.596;2023-07-22T05:09:40;15.90;78.80
6738;DHT22;3406;49.902;8.596;2023-07-22T05:12:07;16.00;79.40
6738;DHT22;3406;49.902;8.596;2023-07-22T05:14:34;16.10;78.80
6738;DHT22;3406;49.902;8.596;2023-07-22T05:17:00;16.20;78.80
6738;DHT22;3406;49.902;8.596;2023-07-22T05:19:27;16.30;78.90
6738;DHT22;3406;49.902;8.596;2023-07-22T05:21:54;16.40;79.00
6738;DHT22;3406;49.902;8.596;2023-07-22T05:24:22;16.50;78.90
6738;DHT22;3406;49.902;8.596;2023-07-22T05:26:48;16.60;79.00
6738;DHT22;3406;49.902;8.596;2023-07-22T05:29:15;16.70;79.10
6738;DHT22;3406;49.902;8.596;2023-07-22T05:31:42;16.80;79.10
6738;DHT22;3406;49.902;8.596;2023-07-22T05:34:09;17.00;79.20
6738;DHT22;3406;49.902;8.596;2023-07-22T05:36:36;17.10;79.00
6738;DHT22;3406;49.902;8.596;2023-07-22T05:39:03;17.20;78.90
6738;DHT22;3406;49.902;8.596;2023-07-22T05:41:32;17.40;78.80
6738;DHT22;3406;49.902;8.596;2023-07-22T05:43:59;17.60;78.60
6738;DHT22;3406;49.902;8.596;2023-07-22T05:46:26;17.70;78.30
6738;DHT22;3406;49.902;8.596;2023-07-22T05:48:52;17.90;78.00
6738;DHT22;3406;49.902;8.596;2023-07-22T05:51:19;18.10;77.60
6738;DHT22;3406;49.902;8.596;2023-07-22T05:53:46;18.20;77.10
6738;DHT22;3406;49.902;8.596;2023-07-22T05:56:12;18.30;76.80
6738;DHT22;3406;49.902;8.596;2023-07-22T05:58:40;18.30;76.60
6738;DHT22;3406;49.902;8.596;2023-07-22T06:01:07;18.30;76.40
6738;DHT22;3406;49.902;8.596;2023-07-22T06:03:34;18.40;76.50
6738;DHT22;3406;49.902;8.596;2023-07-22T06:06:01;18.40;76.30
6738;DHT22;3406;49.902;8.596;2023-07-22T06:08:27;18.40;76.20
6738;DHT22;3406;49.902;8.596;2023-07-22T06:10:54;18.50;76.20
6738;DHT22;3406;49.902;8.596;2023-07-22T06:13:21;18.50;76.00
6738;DHT22;3406;49.902;8.596;2023-07-22T06:15:49;18.60;75.80
6738;DHT22;3406;49.902;8.596;2023-07-22T06:18:15;18.60;75.70
6738;DHT22;3406;49.902;8.596;2023-07-22T06:20:42;18.60;75.50
6738;DHT22;3406;49.902;8.596;2023-07-22T06:23:09;18.80;75.50
6738;DHT22;3406;49.902;8.596;2023-07-22T06:25:35;18.80;75.20
6738;DHT22;3406;49.902;8.596;2023-07-22T06:28:02;18.90;74.80
6738;DHT22;3406;49.902;8.596;2023-07-22T06:30:29;19.00;74.40
6738;DHT22;3406;49.902;8.596;2023-07-22T06:32:57;19.00;74.10
6738;DHT22;3406;49.902;8.596;2023-07-22T06:35:23;19.10;74.00
6738;DHT22;3406;49.902;8.596;2023-07-22T06:37:50;19.30;73.70
6738;DHT22;3406;49.902;8.596;2023-07-22T06:40:17;19.50;73.40
6738;DHT22;3406;49.902;8.596;2023-07-22T06:42:44;19.60;72.80
6738;DHT22;3406;49.902;8.596;2023-07-22T06:45:10;19.70;72.40
6738;DHT22;3406;49.902;8.596;2023-07-22T06:47:37;19.70;71.90
6738;DHT22;3406;49.902;8.596;2023-07-22T06:50:06;19.70;71.90
6738;DHT22;3406;49.902;8.596;2023-07-22T06:52:33;19.70;71.70
6738;DHT22;3406;49.902;8.596;2023-07-22T06:54:59;19.90;71.70
6738;DHT22;3406;49.902;8.596;2023-07-22T06:57:26;20.10;71.10
6738;DHT22;3406;49.902;8.596;2023-07-22T06:59:54;20.20;70.40
6738;DHT22;3406;49.902;8.596;2023-07-22T07:02:21;20.20;70.00
6738;DHT22;3406;49.902;8.596;2023-07-22T07:04:48;20.30;70.10
6738;DHT22;3406;49.902;8.596;2023-07-22T07:07:16;20.40;69.80
6738;DHT22;3406;49.902;8.596;2023-07-22T07:09:43;20.50;69.50
6738;DHT22;3406;49.902;8.596;2023-07-22T07:12:09;20.70;69.10
6738;DHT22;3406;49.902;8.596;2023-07-22T07:14:36;20.80;68.40
6738;DHT22;3406;49.902;8.596;2023-07-22T07:17:03;20.90;68.20
6738;DHT22;3406;49.902;8.596;2023-07-22T07:19:30;21.10;67.90
6738;DHT22;3406;49.902;8.596;2023-07-22T07:21:56;21.20;67.20
6738;DHT22;3406;49.902;8.596;2023-07-22T07:24:24;21.40;66.80
6738;DHT22;3406;49.902;8.596;2023-07-22T07:26:52;21.50;66.20
6738;DHT22;3406;49.902;8.596;2023-07-22T07:29:19;21.70;65.70
6738;DHT22;3406;49.902;8.596;2023-07-22T07:31:46;21.80;65.10
6738;DHT22;3406;49.902;8.596;2023-07-22T07:34:12;21.80;64.30
6738;DHT22;3406;49.902;8.596;2023-07-22T07:36:39;21.80;64.50
6738;DHT22;3406;49.902;8.596;2023-07-22T07:39:05;21.90;64.40
6738;DHT22;3406;49.902;8.596;2023-07-22T07:41:34;22.10;64.20
6738;DHT22;3406;49.902;8.596;2023-07-22T07:44:01;22.30;63.90
6738;DHT22;3406;49.902;8.596;2023-07-22T07:46:28;22.30;63.30
6738;DHT22;3406;49.902;8.596;2023-07-22T07:48:56;22.30;63.00
6738;DHT22;3406;49.902;8.596;2023-07-22T07:51:25;22.30;62.70
6738;DHT22;3406;49.902;8.596;2023-07-22T07:53:52;22.30;62.40
6738;DHT22;3406;49.902;8.596;2023-07-22T07:56:20;22.20;62.10
6738;DHT22;3406;49.902;8.596;2023-07-22T07:58:49;22.20;62.40
6738;DHT22;3406;49.902;8.596;2023-07-22T08:01:16;22.00;62.20
6738;DHT22;3406;49.902;8.596;2023-07-22T08:03:43;22.00;62.60
6738;DHT22;3406;49.902;8.596;2023-07-22T08:06:11;22.00;62.50
6738;DHT22;3406;49.902;8.596;2023-07-22T08:08:38;22.10;62.20
6738;DHT22;3406;49.902;8.596;2023-07-22T08:11:07;22.10;62.00
6738;DHT22;3406;49.902;8.596;2023-07-22T08:13:35;22.20;61.70
6738;DHT22;3406;49.902;8.596;2023-07-22T08:16:04;22.20;61.40
6738;DHT22;3406;49.902;8.596;2023-07-22T08:18:32;22.20;61.20
6738;DHT22;3406;49.902;8.596;2023-07-22T08:20:59;22.20;61.20
6738;DHT22;3406;49.902;8.596;2023-07-22T08:23:26;22.20;61.00
6738;DHT22;3406;49.902;8.596;2023-07-22T08:25:52;22.20;61.00
6738;DHT22;3406;49.902;8.596;2023-07-22T08:28:19;22.20;60.80
6738;DHT22;3406;49.902;8.596;2023-07-22T08:30:47;22.30;60.50
6738;DHT22;3406;49.902;8.596;2023-07-22T08:33:16;22.30;60.00
6738;DHT22;3406;49.902;8.596;2023-07-22T08:35:42;22.40;59.70
6738;DHT22;3406;49.902;8.596;2023-07-22T08:38:09;22.50;59.30
6738;DHT22;3406;49.902;8.596;2023-07-22T08:40:36;22.60;59.10
6738;DHT22;3406;49.902;8.596;2023-07-22T08:43:05;22.60;59.00
6738;DHT22;3406;49.902;8.596;2023-07-22T08:45:33;22.50;58.80
6738;DHT22;3406;49.902;8.596;2023-07-22T08:48:03;22.60;58.50
6738;DHT22;3406;49.902;8.596;2023-07-22T08:50:37;22.60;58.00
6738;DHT22;3406;49.902;8.596;2023-07-22T08:53:06;22.50;57.90
6738;DHT22;3406;49.902;8.596;2023-07-22T08:55:32;22.40;57.50
6738;DHT22;3406;49.902;8.596;2023-07-22T08:58:00;22.30;57.50
6738;DHT22;3406;49.902;8.596;2023-07-22T09:00:27;22.30;57.60
6738;DHT22;3406;49.902;8.596;2023-07-22T09:02:54;22.30;57.40
6738;DHT22;3406;49.902;8.596;2023-07-22T09:05:21;22.20;57.10
6738;DHT22;3406;49.902;8.596;2023-07-22T09:07:50;22.20;57.10
6738;DHT22;3406;49.902;8.596;2023-07-22T09:10:19;22.30;57.10
6738;DHT22;3406;49.902;8.596;2023-07-22T09:12:47;22.40;57.00
6738;DHT22;3406;49.902;8.596;2023-07-22T09:15:14;22.50;56.80
6738;DHT22;3406;49.902;8.596;2023-07-22T09:17:41;22.70;56.70
6738;DHT22;3406;49.902;8.596;2023-07-22T09:20:08;22.90;56.60
6738;DHT22;3406;49.902;8.596;2023-07-22T09:22:43;23.00;56.30
6738;DHT22;3406;49.902;8.596;2023-07-22T09:25:17;23.00;56.20
6738;DHT22;3406;49.902;8.596;2023-07-22T09:27:45;22.90;56.30
6738;DHT22;3406;49.902;8.596;2023-07-22T09:30:23;22.90;56.10
6738;DHT22;3406;49.902;8.596;2023-07-22T09:32:50;23.00;56.00
6738;DHT22;3406;49.902;8.596;2023-07-22T09:35:17;23.20;56.10
6738;DHT22;3406;49.902;8.596;2023-07-22T09:37:44;23.30;55.90
6738;DHT22;3406;49.902;8.596;2023-07-22T09:40:16;23.50;55.80
6738;DHT22;3406;49.902;8.596;2023-07-22T09:42:48;23.50;55.60
6738;DHT22;3406;49.902;8.596;2023-07-22T09:45:15;23.50;55.70
6738;DHT22;3406;49.902;8.596;2023-07-22T09:47:43;23.50;55.60
6738;DHT22;3406;49.902;8.596;2023-07-22T09:50:14;23.40;55.50
6738;DHT22;3406;49.902;8.596;2023-07-22T09:52:46;23.40;54.80
6738;DHT22;3406;49.902;8.596;2023-07-22T09:55:17;23.30;54.30
6738;DHT22;3406;49.902;8.596;2023-07-22T09:57:45;23.30;54.10
6738;DHT22;3406;49.902;8.596;2023-07-22T10:00:13;23.20;54.20
6738;DHT22;3406;49.902;8.596;2023-07-22T10:02:41;23.20;54.20
6738;DHT22;3406;49.902;8.596;2023-07-22T10:05:13;23.30;53.90
6738;DHT22;3406;49.902;8.596;2023-07-22T10:07:44;23.30;53.80
6738;DHT22;3406;49.902;8.596;2023-07-22T10:10:12;23.30;53.70
6738;DHT22;3406;49.902;8.596;2023-07-22T10:12:42;23.30;53.40
6738;DHT22;3406;49.902;8.596;2023-07-22T10:15:10;23.30;53.50
6738;DHT22;3406;49.902;8.596;2023-07-22T10:17:36;23.40;53.70
6738;DHT22;3406;49.902;8.596;2023-07-22T10:20:05;23.40;53.70
6738;DHT22;3406;49.902;8.596;2023-07-22T10:22:35;23.60;53.60
6738;DHT22;3406;49.902;8.596;2023-07-22T10:25:04;23.60;53.40
6738;DHT22;3406;49.902;8.596;2023-07-22T10:27:31;23.60;53.30
6738;DHT22;3406;49.902;8.596;2023-07-22T10:29:59;23.60;53.30
6738;DHT22;3406;49.902;8.596;2023-07-22T10:32:32;23.70;53.30
6738;DHT22;3406;49.902;8.596;2023-07-22T10:34:58;23.80;53.20
6738;DHT22;3406;49.902;8.596;2023-07-22T10:37:29;23.80;52.90
6738;DHT22;3406;49.902;8.596;2023-07-22T10:39:59;24.10;52.70
6738;DHT22;3406;49.902;8.596;2023-07-22T10:42:26;24.40;52.10
6738;DHT22;3406;49.902;8.596;2023-07-22T10:44:52;24.60;51.80
6738;DHT22;3406;49.902;8.596;2023-07-22T10:47:33;24.70;51.60
6738;DHT22;3406;49.902;8.596;2023-07-22T10:50:08;24.80;51.40
6738;DHT22;3406;49.902;8.596;2023-07-22T10:52:41;24.80;51.50
6738;DHT22;3406;49.902;8.596;2023-07-22T10:55:16;24.80;51.30
6738;DHT22;3406;49.902;8.596;2023-07-22T10:57:49;24.80;51.20
6738;DHT22;3406;49.902;8.596;2023-07-22T11:00:20;24.80;50.90
6738;DHT22;3406;49.902;8.596;2023-07-22T11:03:09;24.70;50.80
6738;DHT22;3406;49.902;8.596;2023-07-22T11:05:49;24.60;50.80
6738;DHT22;3406;49.902;8.596;2023-07-22T11:08:16;24.60;50.60
6738;DHT22;3406;49.902;8.596;2023-07-22T11:10:52;24.60;50.60
6738;DHT22;3406;49.902;8.596;2023-07-22T11:13:27;24.80;50.70
6738;DHT22;3406;49.902;8.596;2023-07-22T11:15:57;25.10;50.20
6738;DHT22;3406;49.902;8.596;2023-07-22T11:18:37;25.30;49.50
6738;DHT22;3406;49.902;8.596;2023-07-22T11:21:07;25.40;49.50
6738;DHT22;3406;49.902;8.596;2023-07-22T11:23:34;25.50;49.30
6738;DHT22;3406;49.902;8.596;2023-07-22T11:26:02;25.60;48.90
6738;DHT22;3406;49.902;8.596;2023-07-22T11:28:28;25.40;48.30
6738;DHT22;3406;49.902;8.596;2023-07-22T11:30:55;25.20;48.20
6738;DHT22;3406;49.902;8.596;2023-07-22T11:33:22;25.00;48.50
6738;DHT22;3406;49.902;8.596;2023-07-22T11:35:50;24.80;48.60
6738;DHT22;3406;49.902;8.596;2023-07-22T11:38:17;24.70;48.90
6738;DHT22;3406;49.902;8.596;2023-07-22T11:40:43;24.70;49.00
6738;DHT22;3406;49.902;8.596;2023-07-22T11:43:12;24.70;49.20
6738;DHT22;3406;49.902;8.596;2023-07-22T11:45:39;24.80;49.20
6738;DHT22;3406;49.902;8.596;2023-07-22T11:48:09;25.00;49.10
6738;DHT22;3406;49.902;8.596;2023-07-22T11:50:36;25.00;48.90
6738;DHT22;3406;49.902;8.596;2023-07-22T11:53:04;25.10;48.80
6738;DHT22;3406;49.902;8.596;2023-07-22T11:55:34;25.20;48.70
6738;DHT22;3406;49.902;8.596;2023-07-22T11:58:01;25.30;48.60
6738;DHT22;3406;49.902;8.596;2023-07-22T12:00:28;25.40;48.40
6738;DHT22;3406;49.902;8.596;2023-07-22T12:02:55;25.40;48.40
6738;DHT22;3406;49.902;8.596;2023-07-22T12:05:24;25.30;48.40
6738;DHT22;3406;49.902;8.596;2023-07-22T12:07:51;25.30;48.50
6738;DHT22;3406;49.902;8.596;2023-07-22T12:10:19;25.50;48.50
6738;DHT22;3406;49.902;8.596;2023-07-22T12:12:46;25.60;48.00
6738;DHT22;3406;49.902;8.596;2023-07-22T12:15:15;25.60;47.90
6738;DHT22;3406;49.902;8.596;2023-07-22T12:17:46;25.70;47.70
6738;DHT22;3406;49.902;8.596;2023-07-22T12:20:14;25.90;47.40
6738;DHT22;3406;49.902;8.596;2023-07-22T12:22:41;25.90;47.10
6738;DHT22;3406;49.902;8.596;2023-07-22T12:25:08;25.90;46.70
6738;DHT22;3406;49.902;8.596;2023-07-22T12:27:37;26.00;46.40
6738;DHT22;3406;49.902;8.596;2023-07-22T12:30:07;26.10;46.60
6738;DHT22;3406;49.902;8.596;2023-07-22T12:32:34;26.30;46.30
6738;DHT22;3406;49.902;8.596;2023-07-22T12:35:01;26.30;46.10
6738;DHT22;3406;49.902;8.596;2023-07-22T12:37:28;26.40;46.00
6738;DHT22;3406;49.902;8.596;2023-07-22T12:39:55;26.60;45.80
6738;DHT22;3406;49.902;8.596;2023-07-22T12:42:22;26.60;45.50
6738;DHT22;3406;49.902;8.596;2023-07-22T12:44:50;26.50;44.80
6738;DHT22;3406;49.902;8.596;2023-07-22T12:47:17;26.40;44.60
6738;DHT22;3406;49.902;8.596;2023-07-22T12:49:44;26.50;44.40
6738;DHT22;3406;49.902;8.596;2023-07-22T12:52:11;26.60;44.30
6738;DHT22;3406;49.902;8.596;2023-07-22T12:54:38;26.60;44.00
6738;DHT22;3406;49.902;8.596;2023-07-22T12:57:05;26.60;43.70
6738;DHT22;3406;49.902;8.596;2023-07-22T12:59:32;26.50;43.00
6738;DHT22;3406;49.902;8.596;2023-07-22T13:02:00;26.30;42.60
6738;DHT22;3406;49.902;8.596;2023-07-22T13:04:26;26.20;42.70
6738;DHT22;3406;49.902;8.596;2023-07-22T13:07:00;26.20;42.60
6738;DHT22;3406;49.902;8.596;2023-07-22T13:09:27;26.10;42.50
6738;DHT22;3406;49.902;8.596;2023-07-22T13:11:54;26.10;42.60
6738;DHT22;3406;49.902;8.596;2023-07-22T13:14:20;26.10;42.50
6738;DHT22;3406;49.902;8.596;2023-07-22T13:16:47;26.30;42.00
6738;DHT22;3406;49.902;8.596;2023-07-22T13:19:15;26.30;41.80
6738;DHT22;3406;49.902;8.596;2023-07-22T13:21:42;26.50;41.80
6738;DHT22;3406;49.902;8.596;2023-07-22T13:24:08;26.60;41.20
6738;DHT22;3406;49.902;8.596;2023-07-22T13:26:35;26.60;41.30
6738;DHT22;3406;49.902;8.596;2023-07-22T13:29:02;26.50;41.10
6738;DHT22;3406;49.902;8.596;2023-07-22T13:31:28;26.40;41.00
6738;DHT22;3406;49.902;8.596;2023-07-22T13:33:55;26.40;40.90
6738;DHT22;3406;49.902;8.596;2023-07-22T13:36:23;26.30;41.00
6738;DHT22;3406;49.902;8.596;2023-07-22T13:38:50;26.40;41.10
6738;DHT22;3406;49.902;8.596;2023-07-22T13:41:17;26.50;40.90
6738;DHT22;3406;49.902;8.596;2023-07-22T13:43:43;26.60;40.90
6738;DHT22;3406;49.902;8.596;2023-07-22T13:46:10;26.70;40.80
6738;DHT22;3406;49.902;8.596;2023-07-22T13:48:37;26.80;40.40
6738;DHT22;3406;49.902;8.596;2023-07-22T13:51:03;26.80;40.30
6738;DHT22;3406;49.902;8.596;2023-07-22T13:53:31;26.70;40.20
6738;DHT22;3406;49.902;8.596;2023-07-22T13:55:58;26.70;40.30
6738;DHT22;3406;49.902;8.596;2023-07-22T13:58:25;26.70;40.30
6738;DHT22;3406;49.902;8.596;2023-07-22T14:00:51;26.70;40.30
6738;DHT22;3406;49.902;8.596;2023-07-22T14:03:18;26.70;40.40
6738;DHT22;3406;49.902;8.596;2023-07-22T14:05:45;26.80;40.00
6738;DHT22;3406;49.902;8.596;2023-07-22T14:08:12;26.90;39.70
6738;DHT22;3406;49.902;8.596;2023-07-22T14:10:40;26.90;39.80
6738;DHT22;3406;49.902;8.596;2023-07-22T14:13:06;26.80;39.90
6738;DHT22;3406;49.902;8.596;2023-07-22T14:15:33;26.80;39.90
6738;DHT22;3406;49.902;8.596;2023-07-22T14:18:01;26.90;40.00
6738;DHT22;3406;49.902;8.596;2023-07-22T14:20:28;27.00;39.80
6738;DHT22;3406;49.902;8.596;2023-07-22T14:22:55;26.90;39.40
6738;DHT22;3406;49.902;8.596;2023-07-22T14:25:22;26.80;39.40
6738;DHT22;3406;49.902;8.596;2023-07-22T14:27:50;26.80;39.30
6738;DHT22;3406;49.902;8.596;2023-07-22T14:30:17;26.80;39.40
6738;DHT22;3406;49.902;8.596;2023-07-22T14:32:44;26.90;40.00
6738;DHT22;3406;49.902;8.596;2023-07-22T14:35:10;27.10;39.00
6738;DHT22;3406;49.902;8.596;2023-07-22T14:37:37;27.10;38.90
6738;DHT22;3406;49.902;8.596;2023-07-22T14:40:05;27.00;38.90
6738;DHT22;3406;49.902;8.596;2023-07-22T14:42:34;26.90;39.00
6738;DHT22;3406;49.902;8.596;2023-07-22T14:45:02;26.90;39.00
6738;DHT22;3406;49.902;8.596;2023-07-22T14:47:29;27.10;39.00
6738;DHT22;3406;49.902;8.596;2023-07-22T14:49:55;27.20;38.70
6738;DHT22;3406;49.902;8.596;2023-07-22T14:52:22;27.20;38.60
6738;DHT22;3406;49.902;8.596;2023-07-22T14:54:49;27.20;38.60
6738;DHT22;3406;49.902;8.596;2023-07-22T14:57:16;27.20;38.40
6738;DHT22;3406;49.902;8.596;2023-07-22T14:59:43;27.20;38.30
6738;DHT22;3406;49.902;8.596;2023-07-22T15:02:11;27.10;38.10
6738;DHT22;3406;49.902;8.596;2023-07-22T15:04:38;27.30;38.30
6738;DHT22;3406;49.902;8.596;2023-07-22T15:07:04;27.40;38.20
6738;DHT22;3406;49.902;8.596;2023-07-22T15:09:31;27.60;37.90
6738;DHT22;3406;49.902;8.596;2023-07-22T15:11:58;27.60;37.90
6738;DHT22;3406;49.902;8.596;2023-07-22T15:14:24;27.50;37.80
6738;DHT22;3406;49.902;8.596;2023-07-22T15:16:51;27.40;37.70
6738;DHT22;3406;49.902;8.596;2023-07-22T15:19:19;27.30;37.80
6738;DHT22;3406;49.902;8.596;2023-07-22T15:21:46;27.20;37.60
6738;DHT22;3406;49.902;8.596;2023-07-22T15:24:13;27.10;37.50
6738;DHT22;3406;49.902;8.596;2023-07-22T15:26:40;27.10;37.50
6738;DHT22;3406;49.902;8.596;2023-07-22T15:29:07;27.00;37.40
6738;DHT22;3406;49.902;8.596;2023-07-22T15:31:33;27.10;37.60
6738;DHT22;3406;49.902;8.596;2023-07-22T15:34:00;27.10;37.20
6738;DHT22;3406;49.902;8.596;2023-07-22T15:36:29;27.10;36.90
6738;DHT22;3406;49.902;8.596;2023-07-22T15:38:55;27.20;37.10
6738;DHT22;3406;49.902;8.596;2023-07-22T15:41:22;27.20;36.80
6738;DHT22;3406;49.902;8.596;2023-07-22T15:43:48;27.20;36.40
6738;DHT22;3406;49.902;8.596;2023-07-22T15:46:15;27.20;36.20
6738;DHT22;3406;49.902;8.596;2023-07-22T15:48:42;27.20;36.20
6738;DHT22;3406;49.902;8.596;2023-07-22T15:51:08;27.30;36.00
6738;DHT22;3406;49.902;8.596;2023-07-22T15:53:36;27.30;36.00
6738;DHT22;3406;49.902;8.596;2023-07-22T15:56:03;27.40;36.20
6738;DHT22;3406;49.902;8.596;2023-07-22T15:58:30;27.30;36.00
6738;DHT22;3406;49.902;8.596;2023-07-22T16:00:57;27.20;35.90
6738;DHT22;3406;49.902;8.596;2023-07-22T16:03:23;27.20;36.00